Flight Track Log - Related Links

Times and Time Zones

All times are in EST time to prevent confusion due to time zone crossing. See the AWI3938 flight status page for this flight to view local times or setup timezone preferences in your user account.

Time Position Orientation Groundspeed Altitude Reporting Facility
EST Latitude Longitude Course Direction KTS MPH feet Rate Location/Type
Mon 03:55:00 PM 38.8167 -77.0333 342° North 163 188 1,300  Level Potomac TRACON
Mon 03:56:00 PM 38.7667 -77.0333 180° South 218 251 3,500 2,182 Climbing Potomac TRACON
Mon 03:57:00 PM 39.1054 -77.1641 337° Northwest  Level Estimated
Mon 03:57:01 PM 38.7500 -77.1167 256° West 238 274 5,700  Level Potomac TRACON
Mon 03:58:00 PM 39.1889 -77.2098 337° Northwest  Level FlightAware Approximate
Mon 03:58:07 PM 38.8000 -77.1833 314° West 262 302 8,200  Level Potomac TRACON
Mon 03:59:00 PM 39.2733 -77.2522 330° Northwest  Level Estimated
Mon 03:59:01 PM 38.8500 -77.2333 322° Northwest 258 297 10,900  Level Potomac TRACON
Mon 04:00:00 PM 39.3578 -77.2946 342° North  Level Estimated
Mon 04:00:51 PM 38.9881 -77.3542 326° Northwest 333 383 11,000  Level Washington Center
Mon 04:01:52 PM 39.0622 -77.4203 325° Northwest 348 400 13,000 1,361 Climbing Washington Center
Mon 04:02:50 PM 39.1619 -77.4414 351° North 353 406 13,700 1,050 Climbing Washington Center
Mon 04:03:52 PM 39.2681 -77.4414 360° North 364 419 15,100 1,426 Climbing Washington Center
Mon 04:04:52 PM 39.3744 -77.4467 358° North 370 426 16,600 1,424 Climbing Washington Center
Mon 04:05:50 PM 39.4825 -77.4522 358° North 380 437 17,900 1,480 Climbing Washington Center
Mon 04:07:22 PM 39.6614 -77.4567 359° North 391 450 20,300 1,550 Climbing New York Center
Mon 04:08:21 PM 39.7617 -77.4878 347° North 385 443 21,800 1,488 Climbing New York Center
Mon 04:09:23 PM 39.8600 -77.5214 345° North 371 427 23,300 1,100 Climbing New York Center
Mon 04:10:21 PM 39.9600 -77.5583 344° North 366 421 24,000 356 Climbing New York Center
Mon 04:11:21 PM 40.0706 -77.5933 346° North 377 434 24,000  Level New York Center
Mon 04:12:21 PM 40.1728 -77.6281 345° North 406 467 24,000  Level New York Center
Mon 04:13:21 PM 40.2892 -77.6694 345° North 418 481 24,000  Level New York Center
Mon 04:14:20 PM 40.4078 -77.7111 345° North 430 495 24,000  Level New York Center
Mon 04:15:22 PM 40.5303 -77.7536 345° North 441 507 24,000  Level New York Center
Mon 04:16:21 PM 40.6506 -77.7986 344° North 447 514 24,000  Level New York Center
Mon 04:18:15 PM 40.8894 -77.8847 345° North 451 519 24,000  Level Cleveland Center
Mon 04:19:17 PM 41.0086 -77.9275 345° North 450 518 24,000  Level Cleveland Center
Mon 04:20:20 PM 41.1258 -77.9703 345° North 445 512 24,000  Level Cleveland Center
Mon 04:21:22 PM 41.2394 -78.0108 345° North 435 501 24,000  Level Cleveland Center
Mon 04:22:24 PM 41.3750 -78.0600 345° North 427 491 24,000  Level Cleveland Center
Mon 04:23:26 PM 41.4886 -78.1019 345° North 428 493 24,000  Level Cleveland Center
Mon 04:24:28 PM 41.6033 -78.1456 344° North 432 497 24,000  Level Cleveland Center
Mon 04:25:30 PM 41.7189 -78.1878 345° North 433 498 24,000  Level Cleveland Center
Mon 04:26:32 PM 41.8572 -78.2381 345° North 434 499 24,000  Level Cleveland Center
Mon 04:27:34 PM 41.9722 -78.2817 344° North 433 498 24,000  Level Cleveland Center
Mon 04:28:36 PM 42.0864 -78.3236 345° North 429 494 24,000  Level Cleveland Center
Mon 04:29:38 PM 42.1961 -78.3647 344° North 425 489 24,000  Level Cleveland Center
Mon 04:30:40 PM 42.2889 -78.4014 344° North 356 410 24,000  Level Cleveland Center
Mon 04:31:42 PM 42.4006 -78.4433 344° North 347 399 24,000  Level Cleveland Center
Mon 04:32:44 PM 42.4894 -78.4778 344° North 339 390 24,000  Level Cleveland Center
Mon 04:33:47 PM 42.5803 -78.4594 North 360 414 24,000 -960 Level Cleveland Center
Mon 04:34:49 PM 42.6750 -78.4011 24° Northeast 375 432 22,000 -1,694 Descending Cleveland Center
Mon 04:35:51 PM 42.7717 -78.3472 22° Northeast 374 430 20,500 -1,355 Descending Cleveland Center
Mon 04:36:53 PM 42.8411 -78.4006 331° Northwest 284 327 19,200 -1,645 Descending Cleveland Center
Mon 04:37:55 PM 42.8792 -78.5003 298° West 244 281 17,100 -1,065 Descending Cleveland Center
Mon 04:38:57 PM 42.9064 -78.5828 294° West 241 277 17,000 -48 Descending Cleveland Center
Mon 04:39:59 PM 42.9378 -78.6667 297° West 247 284 17,000  Level Cleveland Center
Mon 04:41:01 PM 42.9819 -78.7450 308° West 258 297 17,000  Level Cleveland Center
Mon 04:42:38 PM 43.0167 -78.8500 294° West 250 288 17,000 -38 Level Toronto Center
Mon 04:43:38 PM 43.0500 -78.9500 295° West 240 276 16,900 -1,150 Descending Toronto Center
Mon 04:44:38 PM 43.0667 -79.0333 285° West 230 265 14,700 -2,200 Descending Toronto Center
Mon 04:45:38 PM 43.0833 -79.1000 289° West 230 265 12,500 -2,100 Descending Toronto Center
Mon 04:46:38 PM 43.1000 -79.2000 283° West 240 276 10,500 -2,000 Descending Toronto Center
Mon 04:47:38 PM 43.1667 -79.2500 331° Northwest 260 299 8,500 -1,700 Descending Toronto Center
Mon 04:48:38 PM 43.2333 -79.2833 340° North 260 299 7,100 -1,000 Descending Toronto Center
Mon 04:49:38 PM 43.3000 -79.3333 331° Northwest 260 299 6,500 -800 Descending Toronto Center
Mon 04:50:38 PM 43.3667 -79.2833 29° Northeast 280 322 5,500 -750 Descending Toronto Center
Mon 04:51:38 PM 43.4167 -79.3167 334° Northwest 230 265 5,000 -200 Descending Toronto Center
Mon 04:52:38 PM 43.4500 -79.3333 340° North 170 196 5,100 50 Climbing Toronto Center
Mon 04:53:38 PM 43.4833 -79.3833 313° West 160 184 5,100 -250 Level Toronto Center
Mon 04:54:38 PM 43.5167 -79.4333 313° West 160 184 4,600 -650 Descending Toronto Center
Mon 04:55:38 PM 43.5500 -79.4667 324° Northwest 150 173 3,800 -900 Descending Toronto Center
Mon 04:56:38 PM 43.5833 -79.5167 313° West 160 184 2,800 -850 Descending Toronto Center
Mon 04:57:38 PM 43.6000 -79.5333 324° Northwest 140 161 2,100 -700 Descending Toronto Center
Mon 04:58:38 PM 43.6333 -79.5833 313° West 120 138 1,400 -700 Descending Toronto Center

Login

Don't have an account? Register now (free) for customized features, flight alerts, and more!